Wetterdaten: Woche 26.11.12 - 02.12.12 (KW48)
Datum Zeit Temp. A. Feuchte A. Luftdruck Regen Wind Richtung Taupunkt Windchill Windben
26.11.2012 00:00 6,1 C 83 % 1019,4 hPa 0,0 l/m 1,3 km/h N 3,5 C 6,1 C 7,6 km/h
26.11.2012 01:00 5,8 C 83 % 1019,1 hPa 0,0 l/m 0,0 km/h N 3,1 C 5,8 C 1,2 km/h
26.11.2012 02:00 4,9 C 84 % 1019,2 hPa 0,0 l/m 0,0 km/h N 2,3 C 4,9 C 0,0 km/h
26.11.2012 03:00 4,8 C 83 % 1018,7 hPa 0,0 l/m 0,0 km/h N 2,1 C 4,8 C 0,8 km/h
26.11.2012 04:00 5,8 C 81 % 1018,3 hPa 0,0 l/m 1,0 km/h N 2,8 C 5,8 C 6,4 km/h
26.11.2012 05:00 5,9 C 81 % 1018,3 hPa 0,0 l/m 1,5 km/h N 2,9 C 5,9 C 8,4 km/h
26.11.2012 06:00 5,8 C 81 % 1017,8 hPa 0,0 l/m 1,1 km/h N 2,8 C 5,8 C 6,4 km/h
26.11.2012 07:00 5,8 C 81 % 1017,7 hPa 0,0 l/m 0,2 km/h N 2,8 C 5,8 C 2,4 km/h
26.11.2012 08:00 6,1 C 80 % 1017,2 hPa 0,0 l/m 2,5 km/h N 3,0 C 6,1 C 10,9 km/h
26.11.2012 09:00 6,0 C 80 % 1017,0 hPa 0,0 l/m 3,3 km/h N 2,8 C 6,0 C 10,1 km/h
26.11.2012 10:00 6,2 C 79 % 1016,6 hPa 0,0 l/m 2,9 km/h N 2,8 C 6,2 C 8,9 km/h
26.11.2012 11:00 6,7 C 78 % 1015,1 hPa 0,0 l/m 3,7 km/h N 3,1 C 6,7 C 12,9 km/h
26.11.2012 12:00 6,9 C 78 % 1014,3 hPa 0,3 l/m 6,1 km/h N 3,4 C 6,7 C 18,5 km/h
26.11.2012 13:00 6,8 C 78 % 1013,4 hPa 0,0 l/m 6,1 km/h N 3,3 C 6,6 C 16,1 km/h
26.11.2012 14:00 6,8 C 78 % 1012,7 hPa 0,0 l/m 4,7 km/h N 3,2 C 6,8 C 14,5 km/h
26.11.2012 15:00 6,9 C 78 % 1012,5 hPa 0,0 l/m 1,8 km/h N 3,3 C 6,9 C 7,2 km/h
26.11.2012 16:00 6,9 C 79 % 1012,1 hPa 0,0 l/m 1,3 km/h N 3,5 C 6,9 C 6,0 km/h
26.11.2012 17:00 6,8 C 80 % 1011,7 hPa 0,0 l/m 0,6 km/h N 3,6 C 6,8 C 4,8 km/h
26.11.2012 18:00 6,8 C 81 % 1011,3 hPa 0,0 l/m 0,4 km/h N 3,7 C 6,8 C 4,8 km/h
26.11.2012 19:00 6,8 C 81 % 1010,8 hPa 0,0 l/m 0,0 km/h N 3,8 C 6,8 C 0,4 km/h
26.11.2012 20:00 6,8 C 81 % 1010,4 hPa 0,0 l/m 0,0 km/h N 3,8 C 6,8 C 0,0 km/h
26.11.2012 21:00 6,8 C 81 % 1010,0 hPa 0,0 l/m 0,0 km/h N 3,8 C 6,8 C 0,0 km/h
26.11.2012 22:00 6,9 C 81 % 1009,4 hPa 0,0 l/m 0,0 km/h N 3,9 C 6,9 C 0,0 km/h
26.11.2012 23:00 6,9 C 81 % 1008,8 hPa 0,0 l/m 0,0 km/h N 3,9 C 6,9 C 0,0 km/h
27.11.2012 00:00 7,0 C 80 % 1008,2 hPa 0,0 l/m 0,1 km/h N 3,8 C 7,0 C 2,0 km/h
27.11.2012 01:00 6,9 C 80 % 1007,5 hPa 0,3 l/m 0,1 km/h N 3,7 C 6,9 C 0,8 km/h
27.11.2012 02:00 6,8 C 80 % 1006,9 hPa 0,0 l/m 0,0 km/h N 3,6 C 6,8 C 0,0 km/h
27.11.2012 03:00 6,7 C 80 % 1006,6 hPa 0,0 l/m 0,0 km/h N 3,5 C 6,7 C 0,0 km/h
27.11.2012 04:00 6,7 C 79 % 1006,3 hPa 0,0 l/m 0,0 km/h N 3,3 C 6,7 C 0,4 km/h
27.11.2012 05:00 6,6 C 79 % 1006,1 hPa 0,0 l/m 0,3 km/h N 3,3 C 6,6 C 3,2 km/h
27.11.2012 06:00 6,6 C 79 % 1006,1 hPa 0,0 l/m 0,4 km/h N 3,2 C 6,6 C 4,4 km/h
27.11.2012 07:00 6,6 C 79 % 1006,6 hPa 0,0 l/m 1,0 km/h N 3,2 C 6,6 C 4,8 km/h
27.11.2012 08:00 6,8 C 80 % 1007,0 hPa 0,0 l/m 2,3 km/h N 3,5 C 6,8 C 9,3 km/h
27.11.2012 09:00 7,2 C 81 % 1007,4 hPa 0,0 l/m 2,3 km/h N 4,2 C 7,2 C 8,9 km/h
27.11.2012 10:00 7,8 C 84 % 1007,3 hPa 0,0 l/m 3,0 km/h N 5,3 C 7,8 C 11,6 km/h
27.11.2012 11:00 8,1 C 85 % 1007,2 hPa 0,0 l/m 2,3 km/h N 5,7 C 8,1 C 7,6 km/h
27.11.2012 12:00 8,2 C 85 % 1006,7 hPa 0,0 l/m 0,6 km/h N 5,8 C 8,2 C 4,8 km/h
27.11.2012 13:00 8,3 C 85 % 1006,5 hPa 0,0 l/m 0,3 km/h N 5,9 C 8,3 C 3,6 km/h
27.11.2012 14:00 8,3 C 85 % 1006,2 hPa 0,0 l/m 0,8 km/h N 5,9 C 8,3 C 5,2 km/h
27.11.2012 15:00 8,0 C 85 % 1006,1 hPa 0,0 l/m 0,0 km/h N 5,7 C 8,0 C 0,4 km/h
27.11.2012 16:00 7,9 C 85 % 1006,3 hPa 0,0 l/m 0,0 km/h N 5,5 C 7,9 C 0,4 km/h
27.11.2012 17:00 7,8 C 85 % 1006,3 hPa 0,0 l/m 0,0 km/h N 5,5 C 7,8 C 0,0 km/h
27.11.2012 18:00 7,8 C 85 % 1006,2 hPa 0,0 l/m 0,0 km/h N 5,4 C 7,8 C 1,6 km/h
27.11.2012 19:00 7,8 C 85 % 1005,9 hPa 0,0 l/m 0,0 km/h N 5,4 C 7,8 C 0,8 km/h
27.11.2012 20:00 7,6 C 84 % 1005,8 hPa 0,0 l/m 0,1 km/h N 5,1 C 7,6 C 2,8 km/h
27.11.2012 21:00 7,5 C 84 % 1005,8 hPa 0,0 l/m 0,0 km/h N 5,0 C 7,5 C 0,8 km/h
27.11.2012 22:00 7,4 C 84 % 1005,5 hPa 0,0 l/m 0,2 km/h N 4,7 C 7,4 C 2,4 km/h
27.11.2012 23:00 7,3 C 83 % 1005,3 hPa 0,0 l/m 0,0 km/h N 4,6 C 7,3 C 1,2 km/h
28.11.2012 00:00 7,2 C 83 % 1004,7 hPa 0,0 l/m 0,0 km/h N 4,5 C 7,2 C 0,4 km/h
28.11.2012 01:00 7,2 C 82 % 1004,1 hPa 0,0 l/m 0,0 km/h N 4,3 C 7,2 C 0,4 km/h
28.11.2012 02:00 7,1 C 82 % 1003,5 hPa 0,0 l/m 0,1 km/h N 4,2 C 7,1 C 2,8 km/h
28.11.2012 03:00 6,7 C 82 % 1003,0 hPa 0,0 l/m 0,0 km/h N 3,8 C 6,7 C 0,4 km/h
28.11.2012 04:00 6,4 C 82 % 1002,5 hPa 0,0 l/m 0,1 km/h N 3,5 C 6,4 C 1,2 km/h
28.11.2012 05:00 6,6 C 81 % 1001,5 hPa 0,0 l/m 0,4 km/h N 3,6 C 6,6 C 4,0 km/h
28.11.2012 06:00 6,3 C 81 % 1001,1 hPa 0,0 l/m 0,3 km/h N 3,2 C 6,3 C 2,8 km/h
28.11.2012 07:00 6,0 C 81 % 1000,9 hPa 0,0 l/m 0,0 km/h N 2,9 C 6,0 C 0,4 km/h
28.11.2012 08:00 6,7 C 79 % 1000,9 hPa 0,0 l/m 0,3 km/h N 3,3 C 6,7 C 2,8 km/h
28.11.2012 09:00 8,1 C 78 % 1000,5 hPa 0,0 l/m 1,3 km/h N 4,4 C 8,1 C 6,8 km/h
28.11.2012 10:00 10,4 C 82 % 1000,3 hPa 0,0 l/m 2,6 km/h N 7,3 C 10,4 C 10,5 km/h
28.11.2012 11:00 13,6 C 78 % 999,4 hPa 0,0 l/m 0,4 km/h N 9,8 C 13,6 C 3,6 km/h
28.11.2012 12:00 15,5 C 70 % 998,7 hPa 0,0 l/m 8,1 km/h N 10,1 C 14,6 C 23,7 km/h
28.11.2012 13:00 13,9 C 75 % 998,6 hPa 0,0 l/m 7,8 km/h N 9,5 C 13,0 C 17,7 km/h
28.11.2012 14:00 14,6 C 74 % 997,9 hPa 0,0 l/m 4,0 km/h N 10,0 C 14,5 C 14,5 km/h
28.11.2012 15:00 14,9 C 72 % 997,4 hPa 0,0 l/m 2,3 km/h N 9,9 C 14,9 C 10,9 km/h
28.11.2012 16:00 13,6 C 75 % 997,1 hPa 0,0 l/m 4,6 km/h N 9,1 C 13,1 C 14,1 km/h
28.11.2012 17:00 12,5 C 77 % 996,8 hPa 0,0 l/m 0,9 km/h N 8,6 C 12,5 C 6,8 km/h
28.11.2012 18:00 10,6 C 81 % 996,8 hPa 0,0 l/m 0,5 km/h N 7,6 C 10,6 C 6,0 km/h
28.11.2012 19:00 10,0 C 83 % 996,4 hPa 0,0 l/m 0,6 km/h N 7,2 C 10,0 C 4,4 km/h
28.11.2012 20:00 9,4 C 83 % 995,5 hPa 0,0 l/m 2,4 km/h N 6,7 C 9,4 C 10,1 km/h
28.11.2012 21:00 8,8 C 85 % 994,8 hPa 0,3 l/m 5,6 km/h N 6,3 C 8,0 C 15,7 km/h
28.11.2012 22:00 8,4 C 84 % 993,9 hPa 0,0 l/m 0,6 km/h N 5,8 C 8,4 C 4,8 km/h
28.11.2012 23:00 8,4 C 83 % 993,7 hPa 0,0 l/m 2,8 km/h N 5,7 C 8,4 C 8,0 km/h
29.11.2012 00:00 8,8 C 82 % 992,2 hPa 0,3 l/m 0,5 km/h N 5,9 C 8,8 C 4,0 km/h
29.11.2012 01:00 9,0 C 82 % 991,4 hPa 0,0 l/m 4,0 km/h N 6,0 C 8,8 C 13,3 km/h
29.11.2012 02:00 9,6 C 81 % 990,5 hPa 0,0 l/m 4,0 km/h N 6,5 C 9,3 C 12,5 km/h
29.11.2012 03:00 9,8 C 81 % 989,4 hPa 0,0 l/m 2,8 km/h N 6,6 C 9,8 C 10,9 km/h
29.11.2012 04:00 9,9 C 81 % 988,9 hPa 0,0 l/m 6,3 km/h N 6,8 C 9,7 C 18,1 km/h
29.11.2012 05:00 9,6 C 82 % 988,9 hPa 0,0 l/m 4,2 km/h N 6,6 C 9,1 C 14,1 km/h
29.11.2012 06:00 8,9 C 82 % 988,9 hPa 0,0 l/m 2,4 km/h N 6,0 C 8,9 C 9,3 km/h
29.11.2012 07:00 8,6 C 84 % 989,0 hPa 0,0 l/m 6,5 km/h N 6,1 C 8,0 C 14,9 km/h
29.11.2012 08:00 9,0 C 85 % 989,0 hPa 0,0 l/m 5,4 km/h N 6,6 C 9,0 C 12,9 km/h
29.11.2012 09:00 9,8 C 82 % 989,6 hPa 0,0 l/m 3,2 km/h N 6,8 C 9,5 C 10,1 km/h
29.11.2012 10:00 9,0 C 77 % 990,4 hPa 0,0 l/m 4,8 km/h N 5,2 C 8,9 C 15,3 km/h
29.11.2012 11:00 9,3 C 69 % 990,5 hPa 0,0 l/m 6,9 km/h N 3,8 C 8,8 C 18,9 km/h
29.11.2012 12:00 9,3 C 62 % 990,7 hPa 0,0 l/m 7,8 km/h N 2,4 C 8,2 C 22,5 km/h
29.11.2012 13:00 8,6 C 61 % 991,2 hPa 0,0 l/m 13,0 km/h N 1,4 C 4,6 C 34,2 km/h
29.11.2012 14:00 8,0 C 61 % 991,8 hPa 0,0 l/m 15,8 km/h N 0,8 C 2,3 C 40,2 km/h
29.11.2012 15:00 7,5 C 61 % 992,3 hPa 0,0 l/m 15,4 km/h N 0,6 C 2,0 C 43,5 km/h
29.11.2012 16:00 6,8 C 64 % 993,1 hPa 0,0 l/m 14,9 km/h N 0,6 C 1,4 C 41,8 km/h
29.11.2012 17:00 6,5 C 63 % 993,2 hPa 0,0 l/m 17,8 km/h N -0,1 C -0,3 C 48,3 km/h
29.11.2012 18:00 6,2 C 64 % 994,2 hPa 0,0 l/m 17,9 km/h N -0,2 C -0,7 C 45,9 km/h
29.11.2012 19:00 5,9 C 64 % 995,1 hPa 0,0 l/m 17,7 km/h N -0,4 C -1,1 C 43,5 km/h
29.11.2012 20:00 5,3 C 67 % 995,3 hPa 0,0 l/m 24,5 km/h N -0,4 C -4,4 C 53,5 km/h
29.11.2012 21:00 4,8 C 70 % 996,3 hPa 0,0 l/m 21,2 km/h N -0,3 C -3,9 C 49,9 km/h
29.11.2012 22:00 4,5 C 71 % 997,6 hPa 0,0 l/m 17,3 km/h N -0,4 C -2,6 C 42,6 km/h
29.11.2012 23:00 4,3 C 72 % 998,4 hPa 0,0 l/m 19,0 km/h N -0,3 C -3,6 C 44,7 km/h
30.11.2012 00:00 4,1 C 72 % 999,2 hPa 0,0 l/m 15,4 km/h N -0,6 C -2,2 C 35,8 km/h
30.11.2012 01:00 4,1 C 70 % 999,6 hPa 0,0 l/m 14,0 km/h N -0,9 C -1,5 C 31,8 km/h
30.11.2012 02:00 3,8 C 73 % 1000,3 hPa 0,0 l/m 16,1 km/h N -0,6 C -2,9 C 34,6 km/h
30.11.2012 03:00 3,7 C 73 % 1000,5 hPa 0,0 l/m 15,6 km/h N -0,7 C -2,8 C 33,4 km/h
30.11.2012 04:00 3,7 C 71 % 1001,0 hPa 0,0 l/m 16,4 km/h N -1,0 C -3,2 C 39,0 km/h
30.11.2012 05:00 3,7 C 70 % 1001,7 hPa 0,0 l/m 15,5 km/h N -1,2 C -2,7 C 33,0 km/h
30.11.2012 06:00 3,8 C 70 % 1002,3 hPa 0,0 l/m 12,6 km/h N -1,2 C -1,0 C 27,0 km/h
30.11.2012 07:00 3,8 C 70 % 1003,1 hPa 0,0 l/m 11,9 km/h N -1,2 C -0,5 C 25,8 km/h
30.11.2012 08:00 4,1 C 69 % 1003,8 hPa 0,0 l/m 10,4 km/h N -1,1 C 0,9 C 26,2 km/h
30.11.2012 09:00 4,3 C 70 % 1004,6 hPa 0,0 l/m 11,2 km/h N -0,8 C 0,5 C 26,5 km/h
30.11.2012 10:00 4,3 C 72 % 1005,5 hPa 0,0 l/m 10,9 km/h N -0,4 C 0,6 C 23,7 km/h
30.11.2012 11:00 4,6 C 70 % 1005,8 hPa 0,0 l/m 10,2 km/h N -0,5 C 1,5 C 20,5 km/h
30.11.2012 12:00 4,7 C 70 % 1005,9 hPa 0,0 l/m 9,9 km/h N -0,3 C 1,9 C 23,7 km/h
30.11.2012 13:00 4,6 C 71 % 1006,1 hPa 0,0 l/m 7,3 km/h N -0,1 C 3,3 C 17,3 km/h
30.11.2012 14:00 4,8 C 71 % 1006,3 hPa 0,0 l/m 8,3 km/h N -0,1 C 3,1 C 20,9 km/h
30.11.2012 15:00 4,6 C 70 % 1006,9 hPa 0,0 l/m 7,3 km/h N -0,4 C 3,7 C 18,9 km/h
30.11.2012 16:00 4,4 C 71 % 1007,7 hPa 0,0 l/m 5,1 km/h N -0,4 C 4,4 C 13,7 km/h
30.11.2012 17:00 4,2 C 71 % 1008,3 hPa 0,0 l/m 3,1 km/h N -0,5 C 4,2 C 9,3 km/h
30.11.2012 18:00 4,1 C 71 % 1008,8 hPa 0,0 l/m 5,1 km/h N -0,6 C 4,1 C 11,7 km/h
30.11.2012 19:00 3,9 C 73 % 1009,3 hPa 0,0 l/m 7,0 km/h N -0,5 C 3,3 C 16,9 km/h
30.11.2012 20:00 3,6 C 75 % 1009,8 hPa 0,0 l/m 4,8 km/h N -0,4 C 3,6 C 14,1 km/h
30.11.2012 21:00 3,4 C 77 % 1010,5 hPa 0,0 l/m 7,3 km/h N -0,3 C 2,5 C 18,1 km/h
30.11.2012 22:00 3,3 C 77 % 1010,9 hPa 0,0 l/m 5,3 km/h N -0,3 C 3,1 C 15,3 km/h
30.11.2012 23:00 2,9 C 76 % 1011,4 hPa 0,0 l/m 2,8 km/h N -0,8 C 2,9 C 9,3 km/h
01.12.2012 00:00 2,7 C 78 % 1011,9 hPa 0,0 l/m 2,0 km/h N -0,7 C 2,7 C 7,7 km/h
01.12.2012 01:00 2,6 C 76 % 1012,1 hPa 0,0 l/m 4,3 km/h N -1,3 C 2,6 C 12,9 km/h
01.12.2012 02:00 2,4 C 72 % 1012,4 hPa 0,0 l/m 2,8 km/h N -2,2 C 2,4 C 8,9 km/h
01.12.2012 03:00 2,2 C 70 % 1012,5 hPa 0,0 l/m 3,6 km/h N -2,7 C 2,2 C 8,9 km/h
01.12.2012 04:00 1,8 C 71 % 1013,0 hPa 0,0 l/m 3,4 km/h N -2,9 C 1,8 C 9,3 km/h
01.12.2012 05:00 1,6 C 72 % 1013,3 hPa 0,0 l/m 4,7 km/h N -2,9 C 1,6 C 11,3 km/h
01.12.2012 06:00 1,2 C 74 % 1013,8 hPa 0,0 l/m 5,2 km/h N -2,9 C 1,2 C 13,7 km/h
01.12.2012 07:00 1,0 C 76 % 1014,2 hPa 0,0 l/m 5,6 km/h N -2,8 C 0,9 C 13,7 km/h
01.12.2012 08:00 1,3 C 76 % 1014,6 hPa 0,0 l/m 7,5 km/h N -2,5 C 0,2 C 17,7 km/h
01.12.2012 09:00 1,6 C 76 % 1015,1 hPa 0,0 l/m 5,0 km/h N -2,2 C 1,4 C 12,1 km/h
01.12.2012 10:00 2,3 C 74 % 1015,5 hPa 0,0 l/m 4,2 km/h N -1,9 C 2,3 C 12,1 km/h
01.12.2012 11:00 3,6 C 68 % 1015,1 hPa 0,0 l/m 3,0 km/h N -1,7 C 3,6 C 9,6 km/h
01.12.2012 12:00 4,1 C 66 % 1014,8 hPa 0,0 l/m 3,6 km/h N -1,8 C 4,1 C 9,7 km/h
01.12.2012 13:00 4,1 C 66 % 1014,5 hPa 0,0 l/m 2,8 km/h N -1,8 C 4,1 C 8,9 km/h
01.12.2012 14:00 4,1 C 64 % 1014,5 hPa 0,0 l/m 0,8 km/h N -2,2 C 4,1 C 4,8 km/h
01.12.2012 15:00 3,8 C 65 % 1014,7 hPa 0,0 l/m 0,0 km/h N -2,1 C 3,8 C 2,4 km/h
01.12.2012 16:00 3,4 C 68 % 1014,6 hPa 0,0 l/m 0,0 km/h N -2,0 C 3,4 C 1,2 km/h
01.12.2012 17:00 3,1 C 70 % 1014,5 hPa 0,0 l/m 0,0 km/h N -1,9 C 3,1 C 0,0 km/h
01.12.2012 18:00 2,9 C 72 % 1014,5 hPa 0,0 l/m 0,0 km/h N -1,6 C 2,9 C 0,4 km/h
01.12.2012 19:00 2,9 C 74 % 1014,6 hPa 0,0 l/m 0,0 km/h N -1,4 C 2,9 C 0,4 km/h
01.12.2012 20:00 2,7 C 76 % 1014,7 hPa 0,0 l/m 0,0 km/h N -1,1 C 2,7 C 0,0 km/h
01.12.2012 21:00 2,6 C 78 % 1014,4 hPa 0,0 l/m 0,0 km/h N -1,0 C 2,6 C 0,0 km/h
01.12.2012 22:00 2,4 C 79 % 1014,2 hPa 0,0 l/m 0,0 km/h N -1,0 C 2,4 C 0,0 km/h
01.12.2012 23:00 2,3 C 78 % 1013,9 hPa 0,0 l/m 0,0 km/h N -1,2 C 2,3 C 0,4 km/h
02.12.2012 00:00 2,2 C 79 % 1013,5 hPa 0,0 l/m 0,0 km/h N -1,1 C 2,2 C 0,0 km/h
02.12.2012 01:00 2,0 C 80 % 1013,0 hPa 0,0 l/m 0,0 km/h N -1,1 C 2,0 C 0,0 km/h
02.12.2012 02:00 1,8 C 81 % 1012,8 hPa 0,0 l/m 0,0 km/h N -1,0 C 1,8 C 0,0 km/h
02.12.2012 03:00 1,6 C 82 % 1012,5 hPa 0,0 l/m 0,0 km/h N -1,1 C 1,6 C 0,0 km/h
02.12.2012 04:00 1,4 C 84 % 1012,4 hPa 0,0 l/m 0,0 km/h N -1,0 C 1,4 C 1,2 km/h
02.12.2012 05:00 1,2 C 84 % 1012,8 hPa 0,0 l/m 0,1 km/h N -1,2 C 1,2 C 1,6 km/h
02.12.2012 06:00 1,0 C 84 % 1012,8 hPa 0,0 l/m 1,8 km/h N -1,4 C 1,0 C 8,9 km/h
02.12.2012 07:00 1,1 C 81 % 1012,8 hPa 0,0 l/m 0,5 km/h N -1,8 C 1,1 C 4,8 km/h
02.12.2012 08:00 1,6 C 80 % 1012,9 hPa 0,0 l/m 1,5 km/h N -1,5 C 1,6 C 7,6 km/h
02.12.2012 09:00 2,1 C 70 % 1012,9 hPa 0,0 l/m 5,4 km/h N -2,8 C 1,8 C 14,9 km/h
02.12.2012 10:00 2,3 C 66 % 1012,8 hPa 0,0 l/m 8,8 km/h N -3,5 C 0,1 C 24,1 km/h
02.12.2012 11:00 2,8 C 63 % 1012,4 hPa 0,0 l/m 4,3 km/h N -3,6 C 2,7 C 13,7 km/h
02.12.2012 12:00 3,3 C 62 % 1012,0 hPa 0,0 l/m 2,5 km/h N -3,2 C 3,3 C 9,3 km/h
02.12.2012 13:00 3,3 C 60 % 1011,4 hPa 0,0 l/m 3,5 km/h N -3,7 C 3,3 C 11,3 km/h
02.12.2012 14:00 3,0 C 60 % 1010,9 hPa 0,0 l/m 5,3 km/h N -3,9 C 3,1 C 13,3 km/h
02.12.2012 15:00 2,7 C 64 % 1010,6 hPa 0,0 l/m 9,5 km/h N -3,5 C 0,0 C 25,3 km/h
02.12.2012 16:00 2,1 C 68 % 1010,5 hPa 0,0 l/m 16,8 km/h N -3,3 C -5,4 C 31,8 km/h
02.12.2012 17:00 1,4 C 75 % 1010,6 hPa 0,0 l/m 15,5 km/h N -2,5 C -5,5 C 34,2 km/h
02.12.2012 18:00 0,9 C 80 % 1011,0 hPa 0,0 l/m 15,0 km/h N -2,2 C -5,8 C 30,2 km/h
02.12.2012 19:00 0,4 C 84 % 1011,3 hPa 0,0 l/m 8,4 km/h N -2,0 C -1,5 C 22,1 km/h
02.12.2012 20:00 0,5 C 85 % 1011,1 hPa 0,0 l/m 8,7 km/h N -1,7 C -1,7 C 23,3 km/h
02.12.2012 21:00 0,7 C 84 % 1011,1 hPa 0,0 l/m 10,3 km/h N -1,7 C -2,9 C 25,7 km/h
02.12.2012 22:00 1,3 C 80 % 1010,9 hPa 0,0 l/m 8,9 km/h N -1,9 C -1,2 C 22,1 km/h
02.12.2012 23:00 1,5 C 78 % 1010,8 hPa 0,0 l/m 10,4 km/h N -1,9 C -2,1 C 23,3 km/h
Min-Datum _ 02.12.12 29.11.12 29.11.12 - 26.11.12 - 02.12.12 02.12.12 26.11.12
_ Min-Zeit 19:30 13:30 05:45 - 01:00 - 14:15 18:15 01:00
Minimum _ 0,3 C 59 % 988,7 hPa - 0,0 km/h - -4,1 C -7,6 C 0,0 km/h
Max-Datum _ 28.11.12 27.11.12 26.11.12 26.11.12 29.11.12 - 28.11.12 28.11.12 29.11.12
_ Max-Zeit 12:15 10:45 00:00 12:30 20:30 - 12:15 12:00 20:30
Maximum _ 15,9 C 85 % 1019,6 hPa 0,3 l/m 25,6 km/h
N
- 10,4 C 15,6 C 56,3 km/h
N
Durchschnitt _ 5,7 C 76 % 1006,2 hPa #1,0 l/m 4,6 km/h N 1,8 C 4,5 C 12,6 km/h